sensor_id;sensor_type;location;lat;lon;timestamp;temperature;humidity
67769;DHT22;54569;52.018;5.584;2022-08-19T00:01:49;20.40;74.30
67769;DHT22;54569;52.018;5.584;2022-08-19T00:04:16;20.40;73.60
67769;DHT22;54569;52.018;5.584;2022-08-19T00:06:43;20.30;73.60
67769;DHT22;54569;52.018;5.584;2022-08-19T00:09:12;20.30;73.80
67769;DHT22;54569;52.018;5.584;2022-08-19T00:11:38;20.30;73.80
67769;DHT22;54569;52.018;5.584;2022-08-19T00:14:06;20.20;73.70
67769;DHT22;54569;52.018;5.584;2022-08-19T00:16:32;20.20;73.80
67769;DHT22;54569;52.018;5.584;2022-08-19T00:18:58;20.20;73.90
67769;DHT22;54569;52.018;5.584;2022-08-19T00:21:26;20.10;74.20
67769;DHT22;54569;52.018;5.584;2022-08-19T00:23:55;20.10;74.30
67769;DHT22;54569;52.018;5.584;2022-08-19T00:26:26;20.10;74.40
67769;DHT22;54569;52.018;5.584;2022-08-19T00:28:51;20.10;74.50
67769;DHT22;54569;52.018;5.584;2022-08-19T00:31:17;20.00;74.40
67769;DHT22;54569;52.018;5.584;2022-08-19T00:33:43;20.10;74.50
67769;DHT22;54569;52.018;5.584;2022-08-19T00:36:12;20.00;74.40
67769;DHT22;54569;52.018;5.584;2022-08-19T00:38:38;20.00;74.40
67769;DHT22;54569;52.018;5.584;2022-08-19T00:41:10;20.00;74.60
67769;DHT22;54569;52.018;5.584;2022-08-19T00:43:36;20.00;74.70
67769;DHT22;54569;52.018;5.584;2022-08-19T00:46:01;19.90;74.80
67769;DHT22;54569;52.018;5.584;2022-08-19T00:48:30;19.90;74.80
67769;DHT22;54569;52.018;5.584;2022-08-19T00:50:57;19.90;74.80
67769;DHT22;54569;52.018;5.584;2022-08-19T00:53:26;19.90;74.80
67769;DHT22;54569;52.018;5.584;2022-08-19T00:55:55;19.80;74.90
67769;DHT22;54569;52.018;5.584;2022-08-19T00:58:23;19.80;75.00
67769;DHT22;54569;52.018;5.584;2022-08-19T01:00:51;19.80;75.00
67769;DHT22;54569;52.018;5.584;2022-08-19T01:03:19;19.80;75.20
67769;DHT22;54569;52.018;5.584;2022-08-19T01:05:46;19.80;75.30
67769;DHT22;54569;52.018;5.584;2022-08-19T01:08:14;19.80;75.30
67769;DHT22;54569;52.018;5.584;2022-08-19T01:10:50;19.80;75.30
67769;DHT22;54569;52.018;5.584;2022-08-19T01:13:25;19.70;75.30
67769;DHT22;54569;52.018;5.584;2022-08-19T01:16:06;19.70;75.30
67769;DHT22;54569;52.018;5.584;2022-08-19T01:18:38;19.70;75.60
67769;DHT22;54569;52.018;5.584;2022-08-19T01:23:59;19.60;76.20
67769;DHT22;54569;52.018;5.584;2022-08-19T01:26:26;19.50;75.50
67769;DHT22;54569;52.018;5.584;2022-08-19T01:28:55;19.50;75.40
67769;DHT22;54569;52.018;5.584;2022-08-19T01:31:24;19.50;75.40
67769;DHT22;54569;52.018;5.584;2022-08-19T01:33:52;19.50;75.60
67769;DHT22;54569;52.018;5.584;2022-08-19T01:36:28;19.50;75.80
67769;DHT22;54569;52.018;5.584;2022-08-19T01:38:55;19.40;75.80
67769;DHT22;54569;52.018;5.584;2022-08-19T01:41:21;19.40;75.80
67769;DHT22;54569;52.018;5.584;2022-08-19T01:43:48;19.40;75.90
67769;DHT22;54569;52.018;5.584;2022-08-19T01:46:13;19.40;75.90
67769;DHT22;54569;52.018;5.584;2022-08-19T01:48:42;19.30;75.80
67769;DHT22;54569;52.018;5.584;2022-08-19T01:51:08;19.30;75.90
67769;DHT22;54569;52.018;5.584;2022-08-19T01:53:34;19.30;76.00
67769;DHT22;54569;52.018;5.584;2022-08-19T01:56:00;19.30;76.10
67769;DHT22;54569;52.018;5.584;2022-08-19T01:58:38;19.30;76.10
67769;DHT22;54569;52.018;5.584;2022-08-19T02:01:06;19.30;76.20
67769;DHT22;54569;52.018;5.584;2022-08-19T02:03:31;19.20;76.20
67769;DHT22;54569;52.018;5.584;2022-08-19T02:05:59;19.20;76.10
67769;DHT22;54569;52.018;5.584;2022-08-19T02:08:26;19.20;76.20
67769;DHT22;54569;52.018;5.584;2022-08-19T02:10:53;19.20;76.40
67769;DHT22;54569;52.018;5.584;2022-08-19T02:13:19;19.20;76.20
67769;DHT22;54569;52.018;5.584;2022-08-19T02:15:45;19.20;76.30
67769;DHT22;54569;52.018;5.584;2022-08-19T02:18:10;19.20;76.20
67769;DHT22;54569;52.018;5.584;2022-08-19T02:20:37;19.10;76.10
67769;DHT22;54569;52.018;5.584;2022-08-19T02:23:04;19.10;76.10
67769;DHT22;54569;52.018;5.584;2022-08-19T02:25:30;19.10;76.00
67769;DHT22;54569;52.018;5.584;2022-08-19T02:27:56;19.00;76.20
67769;DHT22;54569;52.018;5.584;2022-08-19T02:30:22;19.00;75.90
67769;DHT22;54569;52.018;5.584;2022-08-19T02:32:47;18.90;76.00
67769;DHT22;54569;52.018;5.584;2022-08-19T02:35:14;18.90;76.10
67769;DHT22;54569;52.018;5.584;2022-08-19T02:37:41;18.90;76.30
67769;DHT22;54569;52.018;5.584;2022-08-19T02:40:25;18.80;76.30
67769;DHT22;54569;52.018;5.584;2022-08-19T02:42:51;18.80;76.40
67769;DHT22;54569;52.018;5.584;2022-08-19T02:45:17;18.80;76.60
67769;DHT22;54569;52.018;5.584;2022-08-19T02:47:43;18.80;76.60
67769;DHT22;54569;52.018;5.584;2022-08-19T02:50:09;18.80;76.60
67769;DHT22;54569;52.018;5.584;2022-08-19T02:52:35;18.80;76.60
67769;DHT22;54569;52.018;5.584;2022-08-19T02:55:00;18.70;76.50
67769;DHT22;54569;52.018;5.584;2022-08-19T02:57:26;18.70;76.50
67769;DHT22;54569;52.018;5.584;2022-08-19T02:59:53;18.70;76.70
67769;DHT22;54569;52.018;5.584;2022-08-19T03:02:19;18.70;76.70
67769;DHT22;54569;52.018;5.584;2022-08-19T03:04:45;18.60;76.70
67769;DHT22;54569;52.018;5.584;2022-08-19T03:07:14;18.60;77.00
67769;DHT22;54569;52.018;5.584;2022-08-19T03:09:40;18.60;77.00
67769;DHT22;54569;52.018;5.584;2022-08-19T03:12:09;18.60;76.90
67769;DHT22;54569;52.018;5.584;2022-08-19T03:14:36;18.60;77.00
67769;DHT22;54569;52.018;5.584;2022-08-19T03:17:02;18.60;77.00
67769;DHT22;54569;52.018;5.584;2022-08-19T03:19:29;18.60;77.00
67769;DHT22;54569;52.018;5.584;2022-08-19T03:21:57;18.60;76.90
67769;DHT22;54569;52.018;5.584;2022-08-19T03:24:23;18.50;76.90
67769;DHT22;54569;52.018;5.584;2022-08-19T03:26:54;18.50;77.00
67769;DHT22;54569;52.018;5.584;2022-08-19T03:29:28;18.50;77.00
67769;DHT22;54569;52.018;5.584;2022-08-19T03:31:54;18.50;77.00
67769;DHT22;54569;52.018;5.584;2022-08-19T03:34:29;18.50;77.10
67769;DHT22;54569;52.018;5.584;2022-08-19T03:36:57;18.50;77.10
67769;DHT22;54569;52.018;5.584;2022-08-19T03:39:24;18.40;77.10
67769;DHT22;54569;52.018;5.584;2022-08-19T03:41:51;18.30;76.80
67769;DHT22;54569;52.018;5.584;2022-08-19T03:44:19;18.30;77.00
67769;DHT22;54569;52.018;5.584;2022-08-19T03:46:56;18.20;77.00
67769;DHT22;54569;52.018;5.584;2022-08-19T03:49:25;18.20;77.10
67769;DHT22;54569;52.018;5.584;2022-08-19T03:51:53;18.20;77.00
67769;DHT22;54569;52.018;5.584;2022-08-19T03:54:21;18.20;77.10
67769;DHT22;54569;52.018;5.584;2022-08-19T03:56:49;18.10;77.70
67769;DHT22;54569;52.018;5.584;2022-08-19T03:59:22;18.10;77.10
67769;DHT22;54569;52.018;5.584;2022-08-19T04:01:51;18.00;77.00
67769;DHT22;54569;52.018;5.584;2022-08-19T04:04:16;17.80;77.40
67769;DHT22;54569;52.018;5.584;2022-08-19T04:06:43;17.70;77.90
67769;DHT22;54569;52.018;5.584;2022-08-19T04:09:10;17.60;78.40
67769;DHT22;54569;52.018;5.584;2022-08-19T04:11:39;17.50;78.50
67769;DHT22;54569;52.018;5.584;2022-08-19T04:14:08;17.50;78.80
67769;DHT22;54569;52.018;5.584;2022-08-19T04:16:33;17.50;78.70
67769;DHT22;54569;52.018;5.584;2022-08-19T04:19:00;17.50;78.70
67769;DHT22;54569;52.018;5.584;2022-08-19T04:21:27;17.50;78.80
67769;DHT22;54569;52.018;5.584;2022-08-19T04:23:54;17.50;78.70
67769;DHT22;54569;52.018;5.584;2022-08-19T04:26:25;17.40;78.90
67769;DHT22;54569;52.018;5.584;2022-08-19T04:28:52;17.40;79.10
67769;DHT22;54569;52.018;5.584;2022-08-19T04:31:21;17.40;79.10
67769;DHT22;54569;52.018;5.584;2022-08-19T04:33:47;17.40;79.10
67769;DHT22;54569;52.018;5.584;2022-08-19T04:36:21;17.50;79.00
67769;DHT22;54569;52.018;5.584;2022-08-19T04:38:49;17.50;79.00
67769;DHT22;54569;52.018;5.584;2022-08-19T04:41:15;17.40;79.00
67769;DHT22;54569;52.018;5.584;2022-08-19T04:44:00;17.40;79.00
67769;DHT22;54569;52.018;5.584;2022-08-19T04:46:27;17.40;78.90
67769;DHT22;54569;52.018;5.584;2022-08-19T04:48:58;17.40;78.60
67769;DHT22;54569;52.018;5.584;2022-08-19T04:51:25;17.40;78.40
67769;DHT22;54569;52.018;5.584;2022-08-19T04:53:51;17.40;78.60
67769;DHT22;54569;52.018;5.584;2022-08-19T04:56:19;17.30;78.50
67769;DHT22;54569;52.018;5.584;2022-08-19T04:58:46;17.30;78.50
67769;DHT22;54569;52.018;5.584;2022-08-19T05:01:19;17.30;78.80
67769;DHT22;54569;52.018;5.584;2022-08-19T05:03:45;17.30;78.90
67769;DHT22;54569;52.018;5.584;2022-08-19T05:06:13;17.20;78.80
67769;DHT22;54569;52.018;5.584;2022-08-19T05:08:41;17.10;79.10
67769;DHT22;54569;52.018;5.584;2022-08-19T05:11:15;17.00;79.30
67769;DHT22;54569;52.018;5.584;2022-08-19T05:13:42;17.00;79.80
67769;DHT22;54569;52.018;5.584;2022-08-19T05:16:10;17.00;80.00
67769;DHT22;54569;52.018;5.584;2022-08-19T05:18:36;16.90;80.20
67769;DHT22;54569;52.018;5.584;2022-08-19T05:21:22;17.00;80.40
67769;DHT22;54569;52.018;5.584;2022-08-19T05:24:06;17.00;80.20
67769;DHT22;54569;52.018;5.584;2022-08-19T05:26:42;17.20;79.90
67769;DHT22;54569;52.018;5.584;2022-08-19T05:29:12;17.30;79.80
67769;DHT22;54569;52.018;5.584;2022-08-19T05:31:38;17.30;79.30
67769;DHT22;54569;52.018;5.584;2022-08-19T05:34:04;17.40;79.00
67769;DHT22;54569;52.018;5.584;2022-08-19T05:36:38;17.40;78.90
67769;DHT22;54569;52.018;5.584;2022-08-19T05:39:10;17.50;78.90
67769;DHT22;54569;52.018;5.584;2022-08-19T05:41:41;17.50;78.70
67769;DHT22;54569;52.018;5.584;2022-08-19T05:44:07;17.60;78.60
67769;DHT22;54569;52.018;5.584;2022-08-19T05:46:35;17.60;78.50
67769;DHT22;54569;52.018;5.584;2022-08-19T05:49:03;17.70;78.70
67769;DHT22;54569;52.018;5.584;2022-08-19T05:51:30;17.70;79.30
67769;DHT22;54569;52.018;5.584;2022-08-19T05:53:55;17.80;78.60
67769;DHT22;54569;52.018;5.584;2022-08-19T05:56:21;17.90;78.50
67769;DHT22;54569;52.018;5.584;2022-08-19T05:58:47;18.00;78.50
67769;DHT22;54569;52.018;5.584;2022-08-19T06:01:15;18.10;78.00
67769;DHT22;54569;52.018;5.584;2022-08-19T06:03:42;18.20;77.80
67769;DHT22;54569;52.018;5.584;2022-08-19T06:06:12;18.40;77.70
67769;DHT22;54569;52.018;5.584;2022-08-19T06:08:39;18.50;77.40
67769;DHT22;54569;52.018;5.584;2022-08-19T06:11:16;18.60;77.30
67769;DHT22;54569;52.018;5.584;2022-08-19T06:13:44;18.90;77.50
67769;DHT22;54569;52.018;5.584;2022-08-19T06:16:12;19.10;76.90
67769;DHT22;54569;52.018;5.584;2022-08-19T06:18:38;19.20;76.70
67769;DHT22;54569;52.018;5.584;2022-08-19T06:21:04;19.30;76.70
67769;DHT22;54569;52.018;5.584;2022-08-19T06:23:30;19.40;76.60
67769;DHT22;54569;52.018;5.584;2022-08-19T06:25:56;19.40;76.70
67769;DHT22;54569;52.018;5.584;2022-08-19T06:28:22;19.50;76.80
67769;DHT22;54569;52.018;5.584;2022-08-19T06:30:49;19.60;77.00
67769;DHT22;54569;52.018;5.584;2022-08-19T06:33:15;19.60;76.90
67769;DHT22;54569;52.018;5.584;2022-08-19T06:35:41;19.70;76.90
67769;DHT22;54569;52.018;5.584;2022-08-19T06:38:07;19.70;77.10
67769;DHT22;54569;52.018;5.584;2022-08-19T06:40:33;19.80;77.20
67769;DHT22;54569;52.018;5.584;2022-08-19T06:43:00;19.80;77.10
67769;DHT22;54569;52.018;5.584;2022-08-19T06:45:28;19.80;77.30
67769;DHT22;54569;52.018;5.584;2022-08-19T06:47:53;19.80;77.20
67769;DHT22;54569;52.018;5.584;2022-08-19T06:50:24;19.90;77.10
67769;DHT22;54569;52.018;5.584;2022-08-19T06:52:50;20.00;77.00
67769;DHT22;54569;52.018;5.584;2022-08-19T06:55:16;20.10;76.70
67769;DHT22;54569;52.018;5.584;2022-08-19T06:57:42;20.20;76.40
67769;DHT22;54569;52.018;5.584;2022-08-19T07:00:09;20.30;76.20
67769;DHT22;54569;52.018;5.584;2022-08-19T07:02:42;20.50;75.90
67769;DHT22;54569;52.018;5.584;2022-08-19T07:05:08;20.50;75.60
67769;DHT22;54569;52.018;5.584;2022-08-19T07:07:34;20.50;75.60
67769;DHT22;54569;52.018;5.584;2022-08-19T07:10:00;20.50;75.80
67769;DHT22;54569;52.018;5.584;2022-08-19T07:12:28;20.50;75.80
67769;DHT22;54569;52.018;5.584;2022-08-19T07:14:54;20.50;76.00
67769;DHT22;54569;52.018;5.584;2022-08-19T07:17:20;20.50;75.90
67769;DHT22;54569;52.018;5.584;2022-08-19T07:19:46;20.60;75.90
67769;DHT22;54569;52.018;5.584;2022-08-19T07:22:11;20.60;75.90
67769;DHT22;54569;52.018;5.584;2022-08-19T07:24:38;20.60;76.00
67769;DHT22;54569;52.018;5.584;2022-08-19T07:27:05;20.60;76.10
67769;DHT22;54569;52.018;5.584;2022-08-19T07:29:32;20.70;75.90
67769;DHT22;54569;52.018;5.584;2022-08-19T07:31:59;20.70;75.80
67769;DHT22;54569;52.018;5.584;2022-08-19T07:34:27;20.70;75.80
67769;DHT22;54569;52.018;5.584;2022-08-19T07:36:54;20.80;75.80
67769;DHT22;54569;52.018;5.584;2022-08-19T07:39:22;20.80;75.70
67769;DHT22;54569;52.018;5.584;2022-08-19T07:41:49;20.80;75.40
67769;DHT22;54569;52.018;5.584;2022-08-19T07:44:16;21.00;75.30
67769;DHT22;54569;52.018;5.584;2022-08-19T07:46:48;21.10;75.00
67769;DHT22;54569;52.018;5.584;2022-08-19T07:49:15;21.10;74.70
67769;DHT22;54569;52.018;5.584;2022-08-19T07:51:46;21.20;74.20
67769;DHT22;54569;52.018;5.584;2022-08-19T07:54:12;21.40;73.80
67769;DHT22;54569;52.018;5.584;2022-08-19T07:56:38;21.60;73.10
67769;DHT22;54569;52.018;5.584;2022-08-19T07:59:04;21.90;72.60
67769;DHT22;54569;52.018;5.584;2022-08-19T08:01:31;22.20;71.70
67769;DHT22;54569;52.018;5.584;2022-08-19T08:03:57;22.40;71.10
67769;DHT22;54569;52.018;5.584;2022-08-19T08:06:42;22.50;70.60
67769;DHT22;54569;52.018;5.584;2022-08-19T08:09:33;22.60;70.40
67769;DHT22;54569;52.018;5.584;2022-08-19T08:12:06;22.60;70.50
67769;DHT22;54569;52.018;5.584;2022-08-19T08:14:36;22.70;70.50
67769;DHT22;54569;52.018;5.584;2022-08-19T08:17:04;23.00;69.80
67769;DHT22;54569;52.018;5.584;2022-08-19T08:19:30;23.10;69.30
67769;DHT22;54569;52.018;5.584;2022-08-19T08:21:58;23.30;68.80
67769;DHT22;54569;52.018;5.584;2022-08-19T08:24:26;23.70;68.30
67769;DHT22;54569;52.018;5.584;2022-08-19T08:26:52;24.10;67.40
67769;DHT22;54569;52.018;5.584;2022-08-19T08:29:18;24.50;66.30
67769;DHT22;54569;52.018;5.584;2022-08-19T08:31:45;24.80;65.10
67769;DHT22;54569;52.018;5.584;2022-08-19T08:34:13;24.90;65.10
67769;DHT22;54569;52.018;5.584;2022-08-19T08:36:44;25.00;64.80
67769;DHT22;54569;52.018;5.584;2022-08-19T08:39:16;25.20;65.00
67769;DHT22;54569;52.018;5.584;2022-08-19T08:41:56;25.50;64.50
67769;DHT22;54569;52.018;5.584;2022-08-19T08:47:05;25.80;64.10
67769;DHT22;54569;52.018;5.584;2022-08-19T08:49:44;25.60;63.90
67769;DHT22;54569;52.018;5.584;2022-08-19T08:52:25;25.60;62.70
67769;DHT22;54569;52.018;5.584;2022-08-19T08:54:54;25.80;63.80
67769;DHT22;54569;52.018;5.584;2022-08-19T08:57:30;26.00;63.60
67769;DHT22;54569;52.018;5.584;2022-08-19T09:00:02;26.00;63.30
67769;DHT22;54569;52.018;5.584;2022-08-19T09:02:30;25.90;63.60
67769;DHT22;54569;52.018;5.584;2022-08-19T09:04:56;25.70;63.80
67769;DHT22;54569;52.018;5.584;2022-08-19T09:10:08;25.60;63.90
67769;DHT22;54569;52.018;5.584;2022-08-19T09:15:58;25.10;63.40
67769;DHT22;54569;52.018;5.584;2022-08-19T09:18:57;25.00;64.90
67769;DHT22;54569;52.018;5.584;2022-08-19T09:21:25;25.60;63.70
67769;DHT22;54569;52.018;5.584;2022-08-19T09:23:53;25.90;63.20
67769;DHT22;54569;52.018;5.584;2022-08-19T09:26:21;26.20;62.60
67769;DHT22;54569;52.018;5.584;2022-08-19T09:28:49;26.40;62.40
67769;DHT22;54569;52.018;5.584;2022-08-19T09:31:21;26.50;61.70
67769;DHT22;54569;52.018;5.584;2022-08-19T09:33:49;26.70;61.40
67769;DHT22;54569;52.018;5.584;2022-08-19T09:36:17;27.00;61.10
67769;DHT22;54569;52.018;5.584;2022-08-19T09:38:44;27.40;60.40
67769;DHT22;54569;52.018;5.584;2022-08-19T09:41:15;27.70;59.50
67769;DHT22;54569;52.018;5.584;2022-08-19T09:43:44;27.80;59.50
67769;DHT22;54569;52.018;5.584;2022-08-19T09:46:10;28.00;58.80
67769;DHT22;54569;52.018;5.584;2022-08-19T09:48:38;28.00;59.30
67769;DHT22;54569;52.018;5.584;2022-08-19T09:51:10;28.30;58.90
67769;DHT22;54569;52.018;5.584;2022-08-19T09:53:38;28.60;57.80
67769;DHT22;54569;52.018;5.584;2022-08-19T09:56:05;28.70;58.10
67769;DHT22;54569;52.018;5.584;2022-08-19T09:58:32;28.90;57.90
67769;DHT22;54569;52.018;5.584;2022-08-19T10:00:58;29.20;57.50
67769;DHT22;54569;52.018;5.584;2022-08-19T10:03:26;29.60;57.30
67769;DHT22;54569;52.018;5.584;2022-08-19T10:05:52;29.90;57.20
67769;DHT22;54569;52.018;5.584;2022-08-19T10:08:24;30.20;56.30
67769;DHT22;54569;52.018;5.584;2022-08-19T10:10:54;30.20;56.30
67769;DHT22;54569;52.018;5.584;2022-08-19T10:13:23;30.10;57.10
67769;DHT22;54569;52.018;5.584;2022-08-19T10:15:52;30.30;56.10
67769;DHT22;54569;52.018;5.584;2022-08-19T10:18:19;30.00;56.80
67769;DHT22;54569;52.018;5.584;2022-08-19T10:20:49;30.10;56.70
67769;DHT22;54569;52.018;5.584;2022-08-19T10:23:16;30.20;56.10
67769;DHT22;54569;52.018;5.584;2022-08-19T10:25:43;30.50;56.00
67769;DHT22;54569;52.018;5.584;2022-08-19T10:28:09;31.00;54.90
67769;DHT22;54569;52.018;5.584;2022-08-19T10:30:38;31.50;53.90
67769;DHT22;54569;52.018;5.584;2022-08-19T10:33:05;31.60;53.00
67769;DHT22;54569;52.018;5.584;2022-08-19T10:35:31;31.20;53.60
67769;DHT22;54569;52.018;5.584;2022-08-19T10:37:57;30.90;54.10
67769;DHT22;54569;52.018;5.584;2022-08-19T10:40:26;31.30;53.10
67769;DHT22;54569;52.018;5.584;2022-08-19T10:42:53;31.20;52.50
67769;DHT22;54569;52.018;5.584;2022-08-19T10:45:18;30.80;53.70
67769;DHT22;54569;52.018;5.584;2022-08-19T10:47:47;30.50;54.10
67769;DHT22;54569;52.018;5.584;2022-08-19T10:50:13;30.30;54.30
67769;DHT22;54569;52.018;5.584;2022-08-19T10:52:57;29.80;54.90
67769;DHT22;54569;52.018;5.584;2022-08-19T10:55:28;29.30;55.40
67769;DHT22;54569;52.018;5.584;2022-08-19T10:58:14;29.30;55.50
67769;DHT22;54569;52.018;5.584;2022-08-19T11:00:41;31.00;52.50
67769;DHT22;54569;52.018;5.584;2022-08-19T11:03:08;33.10;47.90
67769;DHT22;54569;52.018;5.584;2022-08-19T11:05:34;35.00;45.60
67769;DHT22;54569;52.018;5.584;2022-08-19T11:08:00;36.80;42.70
67769;DHT22;54569;52.018;5.584;2022-08-19T11:10:25;37.50;41.70
67769;DHT22;54569;52.018;5.584;2022-08-19T11:12:51;37.50;42.10
67769;DHT22;54569;52.018;5.584;2022-08-19T11:15:20;37.70;41.90
67769;DHT22;54569;52.018;5.584;2022-08-19T11:17:46;37.10;42.90
67769;DHT22;54569;52.018;5.584;2022-08-19T11:20:13;36.60;44.20
67769;DHT22;54569;52.018;5.584;2022-08-19T11:22:40;36.20;44.80
67769;DHT22;54569;52.018;5.584;2022-08-19T11:25:07;35.40;46.10
67769;DHT22;54569;52.018;5.584;2022-08-19T11:27:33;35.50;45.70
67769;DHT22;54569;52.018;5.584;2022-08-19T11:29:59;34.80;46.40
67769;DHT22;54569;52.018;5.584;2022-08-19T11:32:26;33.90;48.10
67769;DHT22;54569;52.018;5.584;2022-08-19T11:34:52;33.10;48.90
67769;DHT22;54569;52.018;5.584;2022-08-19T11:37:17;32.80;49.40
67769;DHT22;54569;52.018;5.584;2022-08-19T11:39:43;32.90;48.90
67769;DHT22;54569;52.018;5.584;2022-08-19T11:42:09;32.60;49.70
67769;DHT22;54569;52.018;5.584;2022-08-19T11:44:53;32.30;49.90
67769;DHT22;54569;52.018;5.584;2022-08-19T11:47:19;32.60;49.00
67769;DHT22;54569;52.018;5.584;2022-08-19T11:49:46;32.50;49.40
67769;DHT22;54569;52.018;5.584;2022-08-19T11:52:12;33.00;48.10
67769;DHT22;54569;52.018;5.584;2022-08-19T11:54:38;34.70;45.90
67769;DHT22;54569;52.018;5.584;2022-08-19T11:57:04;36.20;43.60
67769;DHT22;54569;52.018;5.584;2022-08-19T11:59:30;37.20;41.90
67769;DHT22;54569;52.018;5.584;2022-08-19T12:01:55;38.00;41.10
67769;DHT22;54569;52.018;5.584;2022-08-19T12:04:23;38.40;40.70
67769;DHT22;54569;52.018;5.584;2022-08-19T12:06:48;37.90;41.20
67769;DHT22;54569;52.018;5.584;2022-08-19T12:09:16;36.50;43.70
67769;DHT22;54569;52.018;5.584;2022-08-19T12:11:43;35.30;45.60
67769;DHT22;54569;52.018;5.584;2022-08-19T12:14:19;34.60;46.40
67769;DHT22;54569;52.018;5.584;2022-08-19T12:16:45;34.40;45.20
67769;DHT22;54569;52.018;5.584;2022-08-19T12:19:11;34.50;46.60
67769;DHT22;54569;52.018;5.584;2022-08-19T12:21:37;34.20;46.40
67769;DHT22;54569;52.018;5.584;2022-08-19T12:24:06;33.80;46.80
67769;DHT22;54569;52.018;5.584;2022-08-19T12:26:31;33.30;47.00
67769;DHT22;54569;52.018;5.584;2022-08-19T12:28:58;32.80;48.10
67769;DHT22;54569;52.018;5.584;2022-08-19T12:31:35;32.30;48.50
67769;DHT22;54569;52.018;5.584;2022-08-19T12:34:15;32.00;48.90
67769;DHT22;54569;52.018;5.584;2022-08-19T12:36:40;31.60;49.30
67769;DHT22;54569;52.018;5.584;2022-08-19T12:39:06;31.20;49.90
67769;DHT22;54569;52.018;5.584;2022-08-19T12:41:33;30.90;50.20
67769;DHT22;54569;52.018;5.584;2022-08-19T12:43:59;30.80;50.40
67769;DHT22;54569;52.018;5.584;2022-08-19T12:46:25;30.80;50.00
67769;DHT22;54569;52.018;5.584;2022-08-19T12:48:50;30.70;49.90
67769;DHT22;54569;52.018;5.584;2022-08-19T12:51:18;30.60;50.40
67769;DHT22;54569;52.018;5.584;2022-08-19T12:53:45;30.50;50.40
67769;DHT22;54569;52.018;5.584;2022-08-19T12:56:11;30.40;50.00
67769;DHT22;54569;52.018;5.584;2022-08-19T12:58:39;30.40;50.10
67769;DHT22;54569;52.018;5.584;2022-08-19T13:01:14;30.30;50.40
67769;DHT22;54569;52.018;5.584;2022-08-19T13:03:42;30.10;50.60
67769;DHT22;54569;52.018;5.584;2022-08-19T13:06:08;30.00;50.70
67769;DHT22;54569;52.018;5.584;2022-08-19T13:08:35;29.80;51.00
67769;DHT22;54569;52.018;5.584;2022-08-19T13:11:16;29.50;51.10
67769;DHT22;54569;52.018;5.584;2022-08-19T13:13:44;29.40;50.20
67769;DHT22;54569;52.018;5.584;2022-08-19T13:16:12;29.10;51.70
67769;DHT22;54569;52.018;5.584;2022-08-19T13:18:38;28.80;52.20
67769;DHT22;54569;52.018;5.584;2022-08-19T13:21:06;28.60;53.00
67769;DHT22;54569;52.018;5.584;2022-08-19T13:23:37;28.30;54.00
67769;DHT22;54569;52.018;5.584;2022-08-19T13:26:05;28.00;54.50
67769;DHT22;54569;52.018;5.584;2022-08-19T13:28:32;27.70;55.40
67769;DHT22;54569;52.018;5.584;2022-08-19T13:31:17;27.40;56.10
67769;DHT22;54569;52.018;5.584;2022-08-19T13:34:02;27.10;56.80
67769;DHT22;54569;52.018;5.584;2022-08-19T13:36:28;26.90;56.60
67769;DHT22;54569;52.018;5.584;2022-08-19T13:38:53;26.80;57.00
67769;DHT22;54569;52.018;5.584;2022-08-19T13:41:19;26.60;56.90
67769;DHT22;54569;52.018;5.584;2022-08-19T13:43:45;26.50;57.50
67769;DHT22;54569;52.018;5.584;2022-08-19T13:46:12;26.40;58.00
67769;DHT22;54569;52.018;5.584;2022-08-19T13:48:39;26.30;58.50
67769;DHT22;54569;52.018;5.584;2022-08-19T13:51:06;26.20;58.70
67769;DHT22;54569;52.018;5.584;2022-08-19T13:53:36;26.20;58.60
67769;DHT22;54569;52.018;5.584;2022-08-19T13:56:08;26.20;58.60
67769;DHT22;54569;52.018;5.584;2022-08-19T13:58:34;26.30;58.50
67769;DHT22;54569;52.018;5.584;2022-08-19T14:00:59;26.40;58.50
67769;DHT22;54569;52.018;5.584;2022-08-19T14:03:26;26.50;58.30
67769;DHT22;54569;52.018;5.584;2022-08-19T14:05:52;26.60;58.50
67769;DHT22;54569;52.018;5.584;2022-08-19T14:08:18;26.50;58.90
67769;DHT22;54569;52.018;5.584;2022-08-19T14:10:44;26.40;58.30
67769;DHT22;54569;52.018;5.584;2022-08-19T14:13:14;26.40;59.70
67769;DHT22;54569;52.018;5.584;2022-08-19T14:15:40;26.60;59.50
67769;DHT22;54569;52.018;5.584;2022-08-19T14:18:06;26.60;58.80
67769;DHT22;54569;52.018;5.584;2022-08-19T14:20:34;26.70;58.50
67769;DHT22;54569;52.018;5.584;2022-08-19T14:23:00;26.60;58.40
67769;DHT22;54569;52.018;5.584;2022-08-19T14:25:28;26.40;58.80
67769;DHT22;54569;52.018;5.584;2022-08-19T14:27:55;26.10;59.70
67769;DHT22;54569;52.018;5.584;2022-08-19T14:30:24;25.80;61.30
67769;DHT22;54569;52.018;5.584;2022-08-19T14:32:52;25.50;62.30
67769;DHT22;54569;52.018;5.584;2022-08-19T14:35:18;25.30;62.80
67769;DHT22;54569;52.018;5.584;2022-08-19T14:37:44;25.10;63.00
67769;DHT22;54569;52.018;5.584;2022-08-19T14:40:12;24.90;63.70
67769;DHT22;54569;52.018;5.584;2022-08-19T14:42:38;24.80;64.20
67769;DHT22;54569;52.018;5.584;2022-08-19T14:45:04;24.70;64.50
67769;DHT22;54569;52.018;5.584;2022-08-19T14:47:30;24.60;64.40
67769;DHT22;54569;52.018;5.584;2022-08-19T14:49:56;24.60;64.60
67769;DHT22;54569;52.018;5.584;2022-08-19T14:52:22;24.50;64.50
67769;DHT22;54569;52.018;5.584;2022-08-19T14:54:47;24.50;64.60
67769;DHT22;54569;52.018;5.584;2022-08-19T14:57:14;24.50;64.50
67769;DHT22;54569;52.018;5.584;2022-08-19T14:59:41;24.50;65.10
67769;DHT22;54569;52.018;5.584;2022-08-19T15:02:07;24.50;64.90
67769;DHT22;54569;52.018;5.584;2022-08-19T15:04:33;24.50;65.00
67769;DHT22;54569;52.018;5.584;2022-08-19T15:06:58;24.40;64.90
67769;DHT22;54569;52.018;5.584;2022-08-19T15:09:29;24.40;65.50
67769;DHT22;54569;52.018;5.584;2022-08-19T15:11:57;24.50;65.50
67769;DHT22;54569;52.018;5.584;2022-08-19T15:14:26;24.50;65.00
67769;DHT22;54569;52.018;5.584;2022-08-19T15:16:53;24.50;65.20
67769;DHT22;54569;52.018;5.584;2022-08-19T15:19:19;24.40;65.10
67769;DHT22;54569;52.018;5.584;2022-08-19T15:21:45;24.40;65.60
67769;DHT22;54569;52.018;5.584;2022-08-19T15:24:12;24.40;65.70
67769;DHT22;54569;52.018;5.584;2022-08-19T15:26:41;24.40;65.80
67769;DHT22;54569;52.018;5.584;2022-08-19T15:29:20;24.40;65.30
67769;DHT22;54569;52.018;5.584;2022-08-19T15:32:01;24.40;65.50
67769;DHT22;54569;52.018;5.584;2022-08-19T15:34:27;24.40;65.20
67769;DHT22;54569;52.018;5.584;2022-08-19T15:36:53;24.30;65.20
67769;DHT22;54569;52.018;5.584;2022-08-19T15:39:19;24.20;65.80
67769;DHT22;54569;52.018;5.584;2022-08-19T15:41:46;24.30;66.00
67769;DHT22;54569;52.018;5.584;2022-08-19T15:44:14;24.40;65.60
67769;DHT22;54569;52.018;5.584;2022-08-19T15:46:44;24.40;65.30
67769;DHT22;54569;52.018;5.584;2022-08-19T15:49:17;24.50;65.40